sensor_id;sensor_type;location;lat;lon;timestamp;pressure;altitude;pressure_sealevel;temperature;humidity
71778;BME280;59609;52.430;4.668;2023-04-10T00:00:05;102038.00;;;10.72;74.26
71778;BME280;59609;52.430;4.668;2023-04-10T00:02:31;102037.00;;;10.73;73.98
71778;BME280;59609;52.430;4.668;2023-04-10T00:04:56;102037.72;;;10.75;74.24
71778;BME280;59609;52.430;4.668;2023-04-10T00:07:22;102031.50;;;10.73;74.18
71778;BME280;59609;52.430;4.668;2023-04-10T00:09:47;102028.59;;;10.75;74.51
71778;BME280;59609;52.430;4.668;2023-04-10T00:12:12;102013.78;;;10.66;74.40
71778;BME280;59609;52.430;4.668;2023-04-10T00:14:39;102016.97;;;10.71;74.43
71778;BME280;59609;52.430;4.668;2023-04-10T00:17:05;102017.13;;;10.70;74.61
71778;BME280;59609;52.430;4.668;2023-04-10T00:19:30;102021.47;;;10.72;74.65
71778;BME280;59609;52.430;4.668;2023-04-10T00:21:55;102020.44;;;10.64;74.42
71778;BME280;59609;52.430;4.668;2023-04-10T00:24:21;102018.53;;;10.64;74.88
71778;BME280;59609;52.430;4.668;2023-04-10T00:26:46;102010.53;;;10.61;75.36
71778;BME280;59609;52.430;4.668;2023-04-10T00:29:12;102006.66;;;10.64;75.22
71778;BME280;59609;52.430;4.668;2023-04-10T00:31:37;101998.91;;;10.58;75.28
71778;BME280;59609;52.430;4.668;2023-04-10T00:34:02;102002.72;;;10.57;75.23
71778;BME280;59609;52.430;4.668;2023-04-10T00:36:28;102000.69;;;10.59;75.08
71778;BME280;59609;52.430;4.668;2023-04-10T00:38:53;102004.88;;;10.53;75.42
71778;BME280;59609;52.430;4.668;2023-04-10T00:41:19;101996.28;;;10.47;75.89
71778;BME280;59609;52.430;4.668;2023-04-10T00:43:44;101999.03;;;10.47;75.56
71778;BME280;59609;52.430;4.668;2023-04-10T00:46:10;102005.22;;;10.39;76.80
71778;BME280;59609;52.430;4.668;2023-04-10T00:48:35;101993.88;;;10.32;76.76
71778;BME280;59609;52.430;4.668;2023-04-10T00:51:01;101990.84;;;10.36;77.45
71778;BME280;59609;52.430;4.668;2023-04-10T00:53:28;101990.25;;;10.32;77.23
71778;BME280;59609;52.430;4.668;2023-04-10T00:55:55;101975.28;;;10.25;77.52
71778;BME280;59609;52.430;4.668;2023-04-10T00:58:20;101988.25;;;10.13;77.73
71778;BME280;59609;52.430;4.668;2023-04-10T01:00:46;101978.59;;;10.19;78.33
71778;BME280;59609;52.430;4.668;2023-04-10T01:03:14;101968.66;;;10.07;78.88
71778;BME280;59609;52.430;4.668;2023-04-10T01:05:50;101961.72;;;10.12;78.63
71778;BME280;59609;52.430;4.668;2023-04-10T01:08:38;101956.88;;;10.05;78.76
71778;BME280;59609;52.430;4.668;2023-04-10T01:16:42;101936.84;;;9.93;79.96
71778;BME280;59609;52.430;4.668;2023-04-10T01:22:17;101927.97;;;9.90;79.67
71778;BME280;59609;52.430;4.668;2023-04-10T01:25:16;101942.88;;;9.87;79.96
71778;BME280;59609;52.430;4.668;2023-04-10T01:28:06;101932.28;;;9.82;80.17
71778;BME280;59609;52.430;4.668;2023-04-10T01:30:34;101937.91;;;9.81;80.15
71778;BME280;59609;52.430;4.668;2023-04-10T01:33:00;101930.06;;;9.76;81.08
71778;BME280;59609;52.430;4.668;2023-04-10T01:35:28;101924.94;;;9.72;81.31
71778;BME280;59609;52.430;4.668;2023-04-10T01:37:55;101928.31;;;9.75;80.59
71778;BME280;59609;52.430;4.668;2023-04-10T01:40:22;101922.59;;;9.67;82.02
71778;BME280;59609;52.430;4.668;2023-04-10T01:42:53;101925.88;;;9.61;82.57
71778;BME280;59609;52.430;4.668;2023-04-10T01:45:22;101925.00;;;9.61;82.05
71778;BME280;59609;52.430;4.668;2023-04-10T01:47:50;101920.66;;;9.58;82.29
71778;BME280;59609;52.430;4.668;2023-04-10T01:50:16;101921.81;;;9.56;82.81
71778;BME280;59609;52.430;4.668;2023-04-10T01:52:43;101919.34;;;9.53;82.42
71778;BME280;59609;52.430;4.668;2023-04-10T01:55:09;101909.66;;;9.58;82.13
71778;BME280;59609;52.430;4.668;2023-04-10T01:57:36;101914.44;;;9.56;82.43
71778;BME280;59609;52.430;4.668;2023-04-10T02:00:02;101906.03;;;9.58;83.01
71778;BME280;59609;52.430;4.668;2023-04-10T02:02:32;101911.69;;;9.56;82.28
71778;BME280;59609;52.430;4.668;2023-04-10T02:04:57;101905.41;;;9.54;82.57
71778;BME280;59609;52.430;4.668;2023-04-10T02:08:30;101906.72;;;9.50;83.50
71778;BME280;59609;52.430;4.668;2023-04-10T02:10:45;101902.94;;;9.51;83.25
71778;BME280;59609;52.430;4.668;2023-04-10T02:13:14;101903.22;;;9.48;83.63
71778;BME280;59609;52.430;4.668;2023-04-10T02:15:42;101903.75;;;9.42;83.38
71778;BME280;59609;52.430;4.668;2023-04-10T02:18:10;101903.38;;;9.47;83.25
71778;BME280;59609;52.430;4.668;2023-04-10T02:20:40;101907.84;;;9.48;83.64
71778;BME280;59609;52.430;4.668;2023-04-10T02:23:06;101895.66;;;9.41;84.41
71778;BME280;59609;52.430;4.668;2023-04-10T02:25:32;101907.22;;;9.44;84.42
71778;BME280;59609;52.430;4.668;2023-04-10T02:28:03;101903.16;;;9.39;84.37
71778;BME280;59609;52.430;4.668;2023-04-10T02:30:28;101898.25;;;9.42;84.28
71778;BME280;59609;52.430;4.668;2023-04-10T02:32:53;101894.78;;;9.40;83.99
71778;BME280;59609;52.430;4.668;2023-04-10T02:35:19;101897.66;;;9.39;84.88
71778;BME280;59609;52.430;4.668;2023-04-10T02:37:45;101900.44;;;9.27;85.37
71778;BME280;59609;52.430;4.668;2023-04-10T02:40:11;101897.47;;;9.30;85.17
71778;BME280;59609;52.430;4.668;2023-04-10T02:42:36;101901.81;;;9.33;85.46
71778;BME280;59609;52.430;4.668;2023-04-10T02:45:02;101906.56;;;9.31;85.73
71778;BME280;59609;52.430;4.668;2023-04-10T02:47:27;101907.31;;;9.33;85.91
71778;BME280;59609;52.430;4.668;2023-04-10T02:49:53;101905.34;;;9.24;86.23
71778;BME280;59609;52.430;4.668;2023-04-10T02:52:18;101897.50;;;9.19;86.59
71778;BME280;59609;52.430;4.668;2023-04-10T02:54:43;101893.50;;;9.23;87.54
71778;BME280;59609;52.430;4.668;2023-04-10T02:57:09;101902.41;;;9.16;87.40
71778;BME280;59609;52.430;4.668;2023-04-10T02:59:35;101895.13;;;9.15;87.88
71778;BME280;59609;52.430;4.668;2023-04-10T03:02:00;101898.03;;;9.13;88.17
71778;BME280;59609;52.430;4.668;2023-04-10T03:04:25;101896.41;;;9.11;88.43
71778;BME280;59609;52.430;4.668;2023-04-10T03:06:52;101887.03;;;9.13;88.80
71778;BME280;59609;52.430;4.668;2023-04-10T03:09:17;101898.91;;;9.14;88.52
71778;BME280;59609;52.430;4.668;2023-04-10T03:11:42;101899.16;;;9.11;88.62
71778;BME280;59609;52.430;4.668;2023-04-10T03:14:08;101889.19;;;9.10;89.07
71778;BME280;59609;52.430;4.668;2023-04-10T03:16:36;101884.69;;;9.09;89.31
71778;BME280;59609;52.430;4.668;2023-04-10T03:19:01;101886.44;;;9.10;89.52
71778;BME280;59609;52.430;4.668;2023-04-10T03:21:27;101879.72;;;9.03;89.18
71778;BME280;59609;52.430;4.668;2023-04-10T03:23:52;101878.19;;;9.10;89.54
71778;BME280;59609;52.430;4.668;2023-04-10T03:26:18;101875.97;;;9.04;89.98
71778;BME280;59609;52.430;4.668;2023-04-10T03:28:43;101878.94;;;9.01;90.55
71778;BME280;59609;52.430;4.668;2023-04-10T03:31:09;101859.47;;;9.04;90.03
71778;BME280;59609;52.430;4.668;2023-04-10T03:33:36;101857.91;;;8.90;91.04
71778;BME280;59609;52.430;4.668;2023-04-10T03:36:02;101855.34;;;8.98;90.90
71778;BME280;59609;52.430;4.668;2023-04-10T03:38:28;101861.88;;;8.97;90.53
71778;BME280;59609;52.430;4.668;2023-04-10T03:40:53;101851.00;;;8.96;91.68
71778;BME280;59609;52.430;4.668;2023-04-10T03:43:19;101847.66;;;8.92;91.43
71778;BME280;59609;52.430;4.668;2023-04-10T03:45:44;101848.63;;;8.91;91.68
71778;BME280;59609;52.430;4.668;2023-04-10T03:48:09;101840.81;;;8.87;92.22
71778;BME280;59609;52.430;4.668;2023-04-10T03:50:35;101839.28;;;8.94;92.25
71778;BME280;59609;52.430;4.668;2023-04-10T03:53:00;101845.41;;;8.97;92.04
71778;BME280;59609;52.430;4.668;2023-04-10T03:55:26;101838.41;;;8.93;92.28
71778;BME280;59609;52.430;4.668;2023-04-10T03:57:51;101843.03;;;8.93;92.52
71778;BME280;59609;52.430;4.668;2023-04-10T04:00:17;101835.16;;;8.88;92.42
71778;BME280;59609;52.430;4.668;2023-04-10T04:02:42;101845.78;;;8.93;92.84
71778;BME280;59609;52.430;4.668;2023-04-10T04:05:08;101826.03;;;8.88;92.50
71778;BME280;59609;52.430;4.668;2023-04-10T04:07:34;101820.81;;;8.85;92.54
71778;BME280;59609;52.430;4.668;2023-04-10T04:09:59;101830.16;;;8.93;92.37
71778;BME280;59609;52.430;4.668;2023-04-10T04:12:25;101824.41;;;8.96;92.89
71778;BME280;59609;52.430;4.668;2023-04-10T04:14:50;101815.28;;;8.96;92.11
71778;BME280;59609;52.430;4.668;2023-04-10T04:17:16;101821.56;;;8.87;92.40
71778;BME280;59609;52.430;4.668;2023-04-10T04:19:41;101816.41;;;8.93;93.08
71778;BME280;59609;52.430;4.668;2023-04-10T04:22:06;101815.28;;;8.96;92.62
71778;BME280;59609;52.430;4.668;2023-04-10T04:24:32;101809.06;;;8.94;93.03
71778;BME280;59609;52.430;4.668;2023-04-10T04:26:57;101804.00;;;8.99;92.03
71778;BME280;59609;52.430;4.668;2023-04-10T04:29:22;101802.16;;;8.99;91.73
71778;BME280;59609;52.430;4.668;2023-04-10T04:31:49;101806.22;;;9.05;91.38
71778;BME280;59609;52.430;4.668;2023-04-10T04:34:15;101796.00;;;9.07;91.12
71778;BME280;59609;52.430;4.668;2023-04-10T04:36:40;101805.06;;;9.07;91.49
71778;BME280;59609;52.430;4.668;2023-04-10T04:39:06;101814.19;;;9.08;91.70
71778;BME280;59609;52.430;4.668;2023-04-10T04:41:31;101799.34;;;9.10;90.93
71778;BME280;59609;52.430;4.668;2023-04-10T04:43:58;101789.72;;;9.05;90.91
71778;BME280;59609;52.430;4.668;2023-04-10T04:46:24;101784.03;;;9.17;90.28
71778;BME280;59609;52.430;4.668;2023-04-10T04:48:49;101785.16;;;9.15;90.52
71778;BME280;59609;52.430;4.668;2023-04-10T04:51:15;101783.91;;;9.19;90.16
71778;BME280;59609;52.430;4.668;2023-04-10T04:53:40;101775.19;;;9.14;89.62
71778;BME280;59609;52.430;4.668;2023-04-10T04:56:07;101780.59;;;9.25;88.78
71778;BME280;59609;52.430;4.668;2023-04-10T04:58:32;101778.34;;;9.30;88.18
71778;BME280;59609;52.430;4.668;2023-04-10T05:00:58;101778.38;;;9.40;88.30
71778;BME280;59609;52.430;4.668;2023-04-10T05:03:23;101776.91;;;9.36;87.87
71778;BME280;59609;52.430;4.668;2023-04-10T05:05:48;101779.88;;;9.44;87.24
71778;BME280;59609;52.430;4.668;2023-04-10T05:08:14;101779.25;;;9.40;87.75
71778;BME280;59609;52.430;4.668;2023-04-10T05:10:40;101784.22;;;9.46;87.57
71778;BME280;59609;52.430;4.668;2023-04-10T05:13:05;101775.69;;;9.49;86.55
71778;BME280;59609;52.430;4.668;2023-04-10T05:15:30;101763.69;;;9.50;86.43
71778;BME280;59609;52.430;4.668;2023-04-10T05:17:56;101771.38;;;9.56;85.52
71778;BME280;59609;52.430;4.668;2023-04-10T05:20:21;101767.47;;;9.59;85.84
71778;BME280;59609;52.430;4.668;2023-04-10T05:22:47;101781.63;;;9.54;86.19
71778;BME280;59609;52.430;4.668;2023-04-10T05:25:12;101772.25;;;9.57;85.74
71778;BME280;59609;52.430;4.668;2023-04-10T05:27:38;101771.72;;;9.42;87.08
71778;BME280;59609;52.430;4.668;2023-04-10T05:30:03;101783.06;;;9.49;86.99
71778;BME280;59609;52.430;4.668;2023-04-10T05:32:29;101783.94;;;9.49;87.36
71778;BME280;59609;52.430;4.668;2023-04-10T05:34:54;101782.63;;;9.44;87.44
71778;BME280;59609;52.430;4.668;2023-04-10T05:37:20;101773.22;;;9.46;87.61
71778;BME280;59609;52.430;4.668;2023-04-10T05:39:45;101779.16;;;9.51;87.20
71778;BME280;59609;52.430;4.668;2023-04-10T05:42:11;101778.28;;;9.51;86.83
71778;BME280;59609;52.430;4.668;2023-04-10T05:44:37;101768.59;;;9.47;87.07
71778;BME280;59609;52.430;4.668;2023-04-10T05:47:03;101773.22;;;9.46;87.53
71778;BME280;59609;52.430;4.668;2023-04-10T05:49:28;101772.78;;;9.51;86.83
71778;BME280;59609;52.430;4.668;2023-04-10T05:51:53;101765.69;;;9.48;85.98
71778;BME280;59609;52.430;4.668;2023-04-10T05:54:19;101755.72;;;9.47;86.33
71778;BME280;59609;52.430;4.668;2023-04-10T05:56:44;101756.63;;;9.57;85.28
71778;BME280;59609;52.430;4.668;2023-04-10T05:59:10;101756.88;;;9.54;85.55
71778;BME280;59609;52.430;4.668;2023-04-10T06:01:38;101770.69;;;9.64;85.35
71778;BME280;59609;52.430;4.668;2023-04-10T06:04:03;101756.66;;;9.67;84.63
71778;BME280;59609;52.430;4.668;2023-04-10T06:06:29;101757.06;;;9.62;84.15
71778;BME280;59609;52.430;4.668;2023-04-10T06:08:55;101755.03;;;9.64;83.72
71778;BME280;59609;52.430;4.668;2023-04-10T06:11:20;101756.78;;;9.65;83.38
71778;BME280;59609;52.430;4.668;2023-04-10T06:13:46;101745.50;;;9.68;83.01
71778;BME280;59609;52.430;4.668;2023-04-10T06:16:12;101730.34;;;9.74;83.22
71778;BME280;59609;52.430;4.668;2023-04-10T06:18:39;101737.44;;;9.76;82.98
71778;BME280;59609;52.430;4.668;2023-04-10T06:21:05;101722.38;;;9.80;82.83
71778;BME280;59609;52.430;4.668;2023-04-10T06:23:30;101727.03;;;9.90;84.08
71778;BME280;59609;52.430;4.668;2023-04-10T06:25:56;101718.59;;;9.81;84.06
71778;BME280;59609;52.430;4.668;2023-04-10T06:28:21;101711.69;;;9.87;84.41
71778;BME280;59609;52.430;4.668;2023-04-10T06:30:46;101710.22;;;9.93;83.19
71778;BME280;59609;52.430;4.668;2023-04-10T06:33:12;101709.22;;;9.94;83.23
71778;BME280;59609;52.430;4.668;2023-04-10T06:35:37;101690.84;;;10.04;81.85
71778;BME280;59609;52.430;4.668;2023-04-10T06:38:03;101694.03;;;9.99;81.88
71778;BME280;59609;52.430;4.668;2023-04-10T06:40:28;101697.66;;;10.00;81.58
71778;BME280;59609;52.430;4.668;2023-04-10T06:42:55;101685.78;;;10.09;81.19
71778;BME280;59609;52.430;4.668;2023-04-10T06:45:20;101679.44;;;10.18;80.49
71778;BME280;59609;52.430;4.668;2023-04-10T06:47:46;101684.19;;;10.06;80.76
71778;BME280;59609;52.430;4.668;2023-04-10T06:50:11;101677.66;;;10.07;80.84
71778;BME280;59609;52.430;4.668;2023-04-10T06:52:37;101686.25;;;10.14;79.90
71778;BME280;59609;52.430;4.668;2023-04-10T06:55:02;101685.97;;;10.36;79.42
71778;BME280;59609;52.430;4.668;2023-04-10T06:57:28;101676.25;;;10.32;79.31
71778;BME280;59609;52.430;4.668;2023-04-10T06:59:53;101673.34;;;10.43;79.07
71778;BME280;59609;52.430;4.668;2023-04-10T07:02:18;101666.69;;;10.46;77.55
71778;BME280;59609;52.430;4.668;2023-04-10T07:04:44;101668.25;;;10.48;77.13
71778;BME280;59609;52.430;4.668;2023-04-10T07:07:10;101666.81;;;10.54;75.88
71778;BME280;59609;52.430;4.668;2023-04-10T07:09:38;101662.47;;;10.70;76.33
71778;BME280;59609;52.430;4.668;2023-04-10T07:12:03;101664.63;;;10.76;75.09
71778;BME280;59609;52.430;4.668;2023-04-10T07:14:29;101662.00;;;10.75;75.91
71778;BME280;59609;52.430;4.668;2023-04-10T07:16:55;101660.81;;;10.77;75.39
71778;BME280;59609;52.430;4.668;2023-04-10T07:19:20;101662.16;;;10.73;74.86
71778;BME280;59609;52.430;4.668;2023-04-10T07:21:46;101651.72;;;10.77;75.10
71778;BME280;59609;52.430;4.668;2023-04-10T07:24:15;101652.84;;;10.84;74.48
71778;BME280;59609;52.430;4.668;2023-04-10T07:26:41;101648.19;;;10.84;74.15
71778;BME280;59609;52.430;4.668;2023-04-10T07:29:06;101656.75;;;10.81;74.53
71778;BME280;59609;52.430;4.668;2023-04-10T07:31:33;101647.78;;;10.79;74.42
71778;BME280;59609;52.430;4.668;2023-04-10T07:33:58;101640.38;;;10.80;73.94
71778;BME280;59609;52.430;4.668;2023-04-10T07:36:24;101639.34;;;10.91;74.11
71778;BME280;59609;52.430;4.668;2023-04-10T07:38:51;101623.50;;;10.93;74.17
71778;BME280;59609;52.430;4.668;2023-04-10T07:41:16;101621.50;;;10.85;73.63
71778;BME280;59609;52.430;4.668;2023-04-10T07:43:41;101613.00;;;11.06;73.29
71778;BME280;59609;52.430;4.668;2023-04-10T07:46:07;101609.94;;;11.09;72.62
71778;BME280;59609;52.430;4.668;2023-04-10T07:48:32;101614.13;;;11.13;72.78
71778;BME280;59609;52.430;4.668;2023-04-10T07:50:58;101614.97;;;11.23;72.87
71778;BME280;59609;52.430;4.668;2023-04-10T07:53:23;101609.72;;;11.29;72.97
71778;BME280;59609;52.430;4.668;2023-04-10T07:55:49;101615.59;;;11.17;72.18
71778;BME280;59609;52.430;4.668;2023-04-10T07:58:14;101614.34;;;11.29;72.53
71778;BME280;59609;52.430;4.668;2023-04-10T08:00:40;101600.56;;;11.29;72.39
71778;BME280;59609;52.430;4.668;2023-04-10T08:03:06;101593.72;;;11.33;72.79
71778;BME280;59609;52.430;4.668;2023-04-10T08:05:32;101599.81;;;11.36;72.79
71778;BME280;59609;52.430;4.668;2023-04-10T08:07:58;101593.25;;;11.37;71.51
71778;BME280;59609;52.430;4.668;2023-04-10T08:10:23;101586.88;;;11.37;72.22
71778;BME280;59609;52.430;4.668;2023-04-10T08:12:49;101580.88;;;11.42;72.63
71778;BME280;59609;52.430;4.668;2023-04-10T08:15:14;101568.41;;;11.37;72.94
71778;BME280;59609;52.430;4.668;2023-04-10T08:17:40;101574.66;;;11.40;72.13
71778;BME280;59609;52.430;4.668;2023-04-10T08:20:06;101562.53;;;11.50;72.74
71778;BME280;59609;52.430;4.668;2023-04-10T08:22:31;101572.31;;;11.62;72.20
71778;BME280;59609;52.430;4.668;2023-04-10T08:24:57;101561.19;;;11.54;71.68
71778;BME280;59609;52.430;4.668;2023-04-10T08:27:22;101558.41;;;11.54;72.08
71778;BME280;59609;52.430;4.668;2023-04-10T08:29:48;101561.19;;;11.54;72.14
71778;BME280;59609;52.430;4.668;2023-04-10T08:32:13;101550.63;;;11.50;72.08
71778;BME280;59609;52.430;4.668;2023-04-10T08:34:38;101554.50;;;11.57;72.15
71778;BME280;59609;52.430;4.668;2023-04-10T08:37:07;101552.53;;;11.49;72.70
71778;BME280;59609;52.430;4.668;2023-04-10T08:39:36;101539.41;;;11.51;72.64
71778;BME280;59609;52.430;4.668;2023-04-10T08:42:02;101542.78;;;11.72;71.73
71778;BME280;59609;52.430;4.668;2023-04-10T08:44:28;101529.66;;;11.57;71.63
71778;BME280;59609;52.430;4.668;2023-04-10T08:46:57;101534.94;;;11.68;72.03
71778;BME280;59609;52.430;4.668;2023-04-10T08:51:55;101528.28;;;11.70;71.31
71778;BME280;59609;52.430;4.668;2023-04-10T08:54:27;101516.19;;;11.71;71.49
71778;BME280;59609;52.430;4.668;2023-04-10T08:56:53;101517.44;;;11.95;70.54
71778;BME280;59609;52.430;4.668;2023-04-10T08:59:19;101519.66;;;12.09;70.64
71778;BME280;59609;52.430;4.668;2023-04-10T09:01:45;101509.25;;;12.03;70.76
71778;BME280;59609;52.430;4.668;2023-04-10T09:04:11;101506.25;;;12.14;70.54
71778;BME280;59609;52.430;4.668;2023-04-10T09:06:37;101502.06;;;12.10;70.08
71778;BME280;59609;52.430;4.668;2023-04-10T09:09:07;101502.06;;;12.10;69.84
71778;BME280;59609;52.430;4.668;2023-04-10T09:14:21;101496.53;;;12.61;68.83
71778;BME280;59609;52.430;4.668;2023-04-10T09:16:47;101497.91;;;12.57;68.25
71778;BME280;59609;52.430;4.668;2023-04-10T09:19:12;101493.66;;;12.45;68.11
71778;BME280;59609;52.430;4.668;2023-04-10T09:21:38;101491.53;;;12.65;67.82
71778;BME280;59609;52.430;4.668;2023-04-10T09:24:03;101489.75;;;12.56;67.23
71778;BME280;59609;52.430;4.668;2023-04-10T09:26:32;101479.78;;;12.97;67.07
71778;BME280;59609;52.430;4.668;2023-04-10T09:29:04;101485.06;;;12.82;67.41
71778;BME280;59609;52.430;4.668;2023-04-10T09:31:33;101475.78;;;12.99;67.55
71778;BME280;59609;52.430;4.668;2023-04-10T09:36:35;101468.66;;;12.88;67.80
71778;BME280;59609;52.430;4.668;2023-04-10T09:39:02;101460.59;;;13.03;67.34
71778;BME280;59609;52.430;4.668;2023-04-10T09:41:27;101445.47;;;13.23;66.64
71778;BME280;59609;52.430;4.668;2023-04-10T09:44:10;101448.06;;;13.25;66.66
71778;BME280;59609;52.430;4.668;2023-04-10T09:46:36;101444.91;;;13.12;66.03
71778;BME280;59609;52.430;4.668;2023-04-10T09:49:02;101449.28;;;13.22;66.63
71778;BME280;59609;52.430;4.668;2023-04-10T09:51:34;101432.22;;;12.93;67.39
71778;BME280;59609;52.430;4.668;2023-04-10T09:54:02;101429.38;;;13.11;67.14
71778;BME280;59609;52.430;4.668;2023-04-10T09:56:30;101424.72;;;13.35;66.90
71778;BME280;59609;52.430;4.668;2023-04-10T09:58:59;101412.94;;;13.25;66.99
71778;BME280;59609;52.430;4.668;2023-04-10T10:01:26;101408.59;;;13.15;67.00
71778;BME280;59609;52.430;4.668;2023-04-10T10:03:53;101399.47;;;13.22;66.75
71778;BME280;59609;52.430;4.668;2023-04-10T10:06:21;101403.13;;;13.47;66.50
71778;BME280;59609;52.430;4.668;2023-04-10T10:08:46;101392.03;;;13.39;66.55
71778;BME280;59609;52.430;4.668;2023-04-10T10:11:20;101406.25;;;13.52;65.76
71778;BME280;59609;52.430;4.668;2023-04-10T10:13:50;101406.06;;;13.37;65.74
71778;BME280;59609;52.430;4.668;2023-04-10T10:16:28;101400.53;;;13.54;66.56
71778;BME280;59609;52.430;4.668;2023-04-10T10:19:12;101400.53;;;13.54;65.51
71778;BME280;59609;52.430;4.668;2023-04-10T10:21:43;101396.53;;;13.88;66.32
71778;BME280;59609;52.430;4.668;2023-04-10T10:24:08;101389.25;;;14.04;65.05
71778;BME280;59609;52.430;4.668;2023-04-10T10:26:34;101383.19;;;14.00;65.32
71778;BME280;59609;52.430;4.668;2023-04-10T10:29:05;101390.59;;;14.24;64.47
71778;BME280;59609;52.430;4.668;2023-04-10T10:31:34;101378.38;;;13.94;65.27
71778;BME280;59609;52.430;4.668;2023-04-10T10:34:02;101371.94;;;13.85;64.73
71778;BME280;59609;52.430;4.668;2023-04-10T10:36:29;101376.94;;;14.06;64.23
71778;BME280;59609;52.430;4.668;2023-04-10T10:39:31;101372.88;;;14.33;64.43
71778;BME280;59609;52.430;4.668;2023-04-10T10:42:17;101344.72;;;14.13;63.68
71778;BME280;59609;52.430;4.668;2023-04-10T10:45:08;101348.38;;;14.06;63.88
71778;BME280;59609;52.430;4.668;2023-04-10T10:47:40;101348.06;;;13.92;65.48
71778;BME280;59609;52.430;4.668;2023-04-10T10:50:06;101339.22;;;13.89;65.63
71778;BME280;59609;52.430;4.668;2023-04-10T10:57:55;101318.34;;;14.33;64.29
71778;BME280;59609;52.430;4.668;2023-04-10T11:00:22;101299.44;;;14.29;63.70
71778;BME280;59609;52.430;4.668;2023-04-10T11:05:51;101317.75;;;14.46;64.82
71778;BME280;59609;52.430;4.668;2023-04-10T11:08:17;101294.56;;;14.39;63.94
71778;BME280;59609;52.430;4.668;2023-04-10T11:11:06;101304.44;;;14.72;63.27
71778;BME280;59609;52.430;4.668;2023-04-10T11:13:36;101280.94;;;14.60;62.74
71778;BME280;59609;52.430;4.668;2023-04-10T11:16:04;101272.16;;;14.79;63.95
71778;BME280;59609;52.430;4.668;2023-04-10T11:21:14;101265.81;;;14.93;63.65
71778;BME280;59609;52.430;4.668;2023-04-10T11:29:05;101243.91;;;14.99;63.08
71778;BME280;59609;52.430;4.668;2023-04-10T11:31:31;101238.94;;;14.94;63.53
71778;BME280;59609;52.430;4.668;2023-04-10T11:34:07;101231.03;;;15.06;64.29
71778;BME280;59609;52.430;4.668;2023-04-10T11:36:34;101222.78;;;14.98;65.03
71778;BME280;59609;52.430;4.668;2023-04-10T11:39:07;101220.97;;;15.05;64.37
71778;BME280;59609;52.430;4.668;2023-04-10T11:41:37;101217.25;;;15.12;64.35
71778;BME280;59609;52.430;4.668;2023-04-10T11:44:08;101213.53;;;14.82;65.12
71778;BME280;59609;52.430;4.668;2023-04-10T11:46:39;101208.22;;;14.95;65.72
71778;BME280;59609;52.430;4.668;2023-04-10T11:49:06;101197.25;;;14.79;66.00
71778;BME280;59609;52.430;4.668;2023-04-10T11:51:34;101199.41;;;14.69;67.17
71778;BME280;59609;52.430;4.668;2023-04-10T11:54:07;101182.56;;;14.48;66.75
71778;BME280;59609;52.430;4.668;2023-04-10T11:56:33;101179.22;;;14.61;67.09
71778;BME280;59609;52.430;4.668;2023-04-10T11:58:59;101171.97;;;14.52;66.54
71778;BME280;59609;52.430;4.668;2023-04-10T12:01:26;101167.66;;;14.49;66.58
71778;BME280;59609;52.430;4.668;2023-04-10T12:03:51;101161.75;;;14.52;66.54
71778;BME280;59609;52.430;4.668;2023-04-10T12:06:16;101169.78;;;14.47;67.31
71778;BME280;59609;52.430;4.668;2023-04-10T12:08:45;101150.53;;;14.46;67.46
71778;BME280;59609;52.430;4.668;2023-04-10T12:11:19;101143.88;;;14.55;67.64
71778;BME280;59609;52.430;4.668;2023-04-10T12:13:46;101151.38;;;14.54;66.99
71778;BME280;59609;52.430;4.668;2023-04-10T12:16:12;101144.22;;;14.37;68.28
71778;BME280;59609;52.430;4.668;2023-04-10T12:18:38;101151.09;;;14.41;68.75
71778;BME280;59609;52.430;4.668;2023-04-10T12:21:05;101140.56;;;14.36;69.40
71778;BME280;59609;52.430;4.668;2023-04-10T12:23:31;101148.53;;;14.31;69.70
71778;BME280;59609;52.430;4.668;2023-04-10T12:28:35;101123.41;;;14.33;70.06
71778;BME280;59609;52.430;4.668;2023-04-10T12:31:00;101134.88;;;14.30;70.82
71778;BME280;59609;52.430;4.668;2023-04-10T12:33:27;101125.50;;;14.31;68.77
71778;BME280;59609;52.430;4.668;2023-04-10T12:35:52;101132.97;;;14.30;69.55
71778;BME280;59609;52.430;4.668;2023-04-10T12:38:36;101123.81;;;14.22;70.46
71778;BME280;59609;52.430;4.668;2023-04-10T12:41:02;101141.31;;;14.22;71.24
71778;BME280;59609;52.430;4.668;2023-04-10T12:43:32;101131.84;;;14.17;71.99
71778;BME280;59609;52.430;4.668;2023-04-10T12:45:59;101126.16;;;14.10;72.10
71778;BME280;59609;52.430;4.668;2023-04-10T12:48:24;101122.41;;;14.03;74.09
71778;BME280;59609;52.430;4.668;2023-04-10T12:50:51;101117.47;;;13.90;74.15
71778;BME280;59609;52.430;4.668;2023-04-10T12:53:16;101115.06;;;13.87;75.85
71778;BME280;59609;52.430;4.668;2023-04-10T12:55:55;101115.97;;;13.72;77.85
71778;BME280;59609;52.430;4.668;2023-04-10T12:58:22;101106.31;;;13.68;79.97
71778;BME280;59609;52.430;4.668;2023-04-10T13:00:52;101093.63;;;13.51;82.23
71778;BME280;59609;52.430;4.668;2023-04-10T13:03:18;101083.59;;;13.41;82.26
71778;BME280;59609;52.430;4.668;2023-04-10T13:05:44;101073.09;;;13.29;85.55
71778;BME280;59609;52.430;4.668;2023-04-10T13:08:10;101073.63;;;13.24;nan
71778;BME280;59609;52.430;4.668;2023-04-10T13:10:35;101050.50;;;13.17;86.27
71778;BME280;59609;52.430;4.668;2023-04-10T13:13:02;101056.03;;;13.17;89.20
71778;BME280;59609;52.430;4.668;2023-04-10T13:15:28;101053.09;;;13.03;89.08
71778;BME280;59609;52.430;4.668;2023-04-10T13:17:54;101022.03;;;12.93;90.59
71778;BME280;59609;52.430;4.668;2023-04-10T13:20:20;101047.22;;;12.98;89.82
71778;BME280;59609;52.430;4.668;2023-04-10T13:22:46;101037.59;;;12.94;90.26
71778;BME280;59609;52.430;4.668;2023-04-10T13:25:11;101023.75;;;12.94;91.65
71778;BME280;59609;52.430;4.668;2023-04-10T13:27:37;101010.31;;;12.82;92.84
71778;BME280;59609;52.430;4.668;2023-04-10T13:30:02;101015.66;;;12.84;93.28